x

9439040 - Astoria, Or (asto3) Weather Station

11:30 - Sun 25th Sep 2016 All times are PDT. -7 hours from GMT.

  • Wind
    7mph, 10mph gusts
  • Sea Temp 64°f
  • Ar Temp 67°f
  • Sea Pressure 1021.4mb
  • 9439040 - Astoria, Or
  • 9439040 - Astoria, Or

More Historic Weather Station data

Upgrade to MSW Pro to gain access to the past 30 days of data for over 8000 Wavebouys and Weather Stations around the globe.

Join Pro

Comparision Forecast

View Surf forecast
   
Dom 09/25 11:30 7 10 mph 1021.4mb 64f 67f
11:24 7 9 mph 1021.5mb 64f 67f
11:18 2 6 mph 1021.5mb 64f 65f
11:12 2 3 mph 1021.5mb 64f 65f
11:06 1 3 mph 1021.6mb 64f 65f
11:00 2
mph
1021.6mb 64f 65f
10:54  -  2 mph 1021.6mb 64f 65f
10:48 1 2 mph 1021.6mb 64f -
10:42  -  2 mph 1021.7mb 64f -
10:36 2
mph
1021.7mb 64f -
10:30 2 3 mph 1021.8mb 64f 66f
10:24 1 3 mph 1021.8mb 64f 66f
10:18  -  2 mph 1022mb 64f 67f
10:12 2 7 mph 1022mb 64f 69f
10:06 6 9 mph 1022mb 64f 69f
10:00 2 5 mph 1022mb 64f 68f
9:54 5 8 mph 1022.1mb 64f 68f
9:48 3 7 mph 1022.1mb 64f 68f
9:42 2 7 mph 1022.1mb 64f 68f
9:36 2 5 mph 1022.3mb 64f 68f
9:30 5 9 mph 1022.2mb 64f 69f
9:24 6 8 mph 1022.3mb 64f 69f
9:18 6 7 mph 1022.4mb 65f 69f
9:12 2 3 mph 1022.5mb 65f 68f
9:06  -  2 mph 1022.5mb 65f 68f
9:00 1 5 mph 1022.6mb 65f 69f
8:54 1 3 mph 1022.6mb 65f 69f
8:48  -  5 mph 1022.6mb 65f 69f
8:42 5 8 mph 1022.6mb 65f 70f
8:36 3 7 mph 1022.7mb 65f 70f
8:30 2 5 mph 1022.6mb 65f 68f
8:24 2 5 mph 1022.5mb 65f 68f
8:18  -  2 mph 1022.6mb 65f 68f
8:12  -  2 mph 1022.7mb 65f 69f
8:06  -  1 mph 1022.7mb 65f 69f
8:00 2 3 mph 1022.7mb 65f 70f
7:54 2 6 mph 1022.8mb 65f 70f
7:48 5 6 mph 1022.8mb 65f 70f
7:42 2 3 mph 1022.8mb 65f 71f
7:36  -  2 mph 1022.8mb 65f 70f
7:30 2 3 mph 1022.9mb 65f 69f
7:24 3 5 mph 1022.9mb 65f 69f
7:18 1 3 mph - 65f 70f
7:12 3 6 mph - 65f 71f
7:06 3 6 mph - 65f 71f
7:00 2 5 mph 1023mb 65f 71f
6:54 3 6 mph 1023.1mb 65f 71f
6:48 3 5 mph - 65f 72f
6:42 1 2 mph - 65f 72f
6:36  -  1 mph - 65f 72f
6:30  -  1 mph 1023.3mb 65f 71f
6:24  -  2 mph 1023.4mb 65f 72f
6:18  -  3 mph 1023.5mb 65f 71f
6:12 1 5 mph 1023.6mb 65f 70f
6:06 1 3 mph 1023.7mb 64f 70f
6:00 3 5 mph 1023.7mb 65f 69f
5:54 2 6 mph 1023.8mb 65f 69f
5:48 1 5 mph 1023.8mb 65f 70f
5:42 2 3 mph 1023.9mb 64f 69f
5:36 2 3 mph 1023.9mb 64f 69f
5:30 3 5 mph 1023.9mb 65f 70f
5:24 3 5 mph 1024mb 64f 71f
5:18 2 3 mph 1024mb 64f 72f
5:12 2
mph
1024mb 64f 72f
5:06 1 2 mph 1024.2mb 64f 71f
5:00 2
mph
1024.4mb 65f 71f
4:54 1 2 mph 1024.4mb 65f 71f
4:48 1 2 mph 1024.5mb 64f -
4:42 1 2 mph 1024.6mb 65f -
4:36 2
mph
1024.7mb 65f -
4:30 1 2 mph - 65f 70f
4:24 1 2 mph - 65f 72f
4:18  -  2 mph 1025mb 65f 72f
4:12 2 3 mph 1025mb 65f 73f
4:06  -  2 mph 1025mb 65f 74f
4:00  -  2 mph 1025.1mb 65f 74f
3:54 2 3 mph 1025.2mb 64f 72f
3:48  -  2 mph 1025.2mb 64f -
3:42 1 2 mph 1025.3mb 64f -
3:36 1 2 mph 1025.4mb 64f -
3:30 1 2 mph 1025.5mb 64f 72f
3:24 1 2 mph 1025.7mb 64f 70f
3:18 1 2 mph 1025.8mb - 71f
3:12  -  2 mph 1025.9mb - 70f
3:06 1 2 mph 1026mb - 69f
3:00 2 3 mph 1026.2mb 64f 69f
2:54 2 3 mph 1026.2mb 64f 68f
2:48 2 3 mph 1026.3mb 64f 69f
2:42 1 2 mph 1026.3mb 64f 69f
2:36 1 2 mph 1026.3mb 64f 68f
2:30 1 3 mph 1026.3mb 64f 67f
2:24 2 3 mph 1026.5mb 64f 66f
2:18 3
mph
1026.6mb 64f 66f
2:12 1 5 mph 1026.7mb 64f 67f
2:06 2 5 mph 1026.8mb 64f 68f
2:00 3
mph
1026.9mb 64f 67f
1:54 3 6 mph 1027mb 63f 67f
1:48 3 5 mph 1027mb 63f 69f
1:42 1 2 mph 1027.1mb 63f 69f
1:36 2
mph
1027.2mb 63f 70f
1:30 2 3 mph 1027.2mb 63f 70f
1:24 2
mph
1027.3mb 63f 69f
1:18 2
mph
1027.3mb 63f 69f
1:12 2 7 mph 1027.3mb 64f 70f
1:06 5 6 mph 1027.3mb 64f 69f
1:00 5 6 mph 1027.4mb 64f 69f
12:54 6 7 mph 1027.5mb 64f 68f
12:48 5 8 mph 1027.5mb 64f 68f
12:42 7 8 mph 1027.6mb 63f 67f
12:36 6 7 mph 1027.6mb 63f 66f
12:30 6 7 mph 1027.6mb 64f 66f
12:24 5 7 mph 1027.8mb 64f 66f
12:18 5 8 mph 1027.8mb 64f 66f
12:12 6 8 mph 1027.9mb 64f 65f
12:06 6 8 mph 1027.9mb 64f 64f
12:00 5 10 mph 1027.9mb 64f 65f
11:54 5 10 mph 1028mb 64f 64f
11:48 2 6 mph 1028.1mb 64f 65f
11:42 3 6 mph 1028.2mb 64f 64f
11:36 3 5 mph 1028.3mb 64f 64f
11:30 2 3 mph 1028.3mb 64f 64f
11:24 1 5 mph 1028.3mb 64f 64f
11:18 5 7 mph 1028.3mb 64f 62f
11:12 5 9 mph 1028.3mb 64f 62f
11:06 7 9 mph 1028.4mb 64f 62f
11:00 2 7 mph 1028.4mb 64f 63f
10:54 2 7 mph 1028.4mb 64f 62f
10:48 6 9 mph 1028.5mb 64f 62f
10:42 7 9 mph 1028.6mb 64f 61f
10:36 5 8 mph 1028.6mb 64f 61f
10:30 2 10 mph 1028.5mb 64f 62f
10:24 5 7 mph 1028.5mb 64f 61f
10:18 3 7 mph 1028.5mb 64f 61f
10:12 2 5 mph 1028.5mb 64f 61f
10:06 3 7 mph 1028.6mb 64f 61f
10:00 2 7 mph 1028.6mb 64f 60f
9:54 6 10 mph 1028.6mb 64f 60f
9:48 3 8 mph 1028.6mb 64f 60f
9:42 5 8 mph 1028.5mb 64f 60f
9:36 1 5 mph 1028.5mb 64f 60f
9:30 2 3 mph 1028.6mb 64f 60f
9:24 1 7 mph 1028.6mb 64f 60f
9:18 2 5 mph 1028.6mb 64f 59f
9:12 2 6 mph 1028.6mb 64f 59f
9:06 2 6 mph 1028.6mb 64f 59f
9:00 2 6 mph 1028.5mb 64f 59f
8:54 3 6 mph 1028.4mb 64f 59f
8:48 5 6 mph 1028.5mb 64f 59f
8:42 2 5 mph 1028.5mb 64f 59f
8:36 2 5 mph 1028.5mb 64f 59f
8:30 3 6 mph 1028.4mb 64f 59f
8:24 2 6 mph 1028.4mb 64f 59f
8:18 2 5 mph 1028.5mb 64f 59f
8:12 2 7 mph 1028.5mb 64f 59f
8:06 5 7 mph 1028.6mb 64f 59f
8:00 1 6 mph 1028.4mb 64f 59f
7:54 5 6 mph 1028.3mb 64f 59f
7:48 3 6 mph 1028.2mb 64f 59f
7:42 3 7 mph 1028.2mb 64f 59f
7:36 3 6 mph 1028.2mb 64f 58f
7:30 3 6 mph 1028.2mb 64f 59f
7:24 2 6 mph 1028.2mb 64f 59f
7:18 1 5 mph 1028.2mb 64f 58f
7:12 2 6 mph 1028.2mb 64f 58f
7:06 3 6 mph 1028.2mb 64f 58f
7:00 2 7 mph 1028.1mb 64f 59f
6:54 2 6 mph 1028.1mb 64f 59f
6:48 3 7 mph 1028.1mb 64f 59f
6:42 5 7 mph 1028.1mb 64f 58f
6:36 3 5 mph 1028.1mb 64f 59f
6:30 2 6 mph 1028.1mb 64f 59f
6:24 3 6 mph 1028.1mb 64f 59f
6:18 3 5 mph 1028mb 64f 59f
6:12 2 5 mph 1028mb 64f 59f
6:06 2 3 mph 1028mb 64f 58f
6:00 3 5 mph 1028mb 64f 58f
5:54 2 3 mph 1028mb 64f 58f
5:48 1 3 mph 1027.9mb 64f 59f
5:42 1 5 mph 1027.9mb 64f 58f
5:36 2 6 mph 1027.9mb 64f 58f
5:30 3 6 mph 1027.9mb 63f 58f
5:24 3 6 mph 1027.9mb 64f 59f
5:18 2 5 mph 1028mb 64f 59f
5:12  -  2 mph 1028mb 64f 59f
5:06 1 3 mph 1028mb 64f 59f
5:00 1 2 mph 1028mb 64f 59f
4:54  -  3 mph 1028mb 64f 59f
4:48 1 3 mph 1028mb 64f 59f
4:42  -  3 mph 1028mb 64f 59f
4:36 1 2 mph 1027.9mb 64f 59f
4:30  -  3 mph 1028mb 64f 59f
4:24 1 3 mph 1028mb 64f 59f
4:18 1 2 mph 1027.9mb 64f 59f
4:12 1 3 mph 1028mb 64f 59f
4:06 2 3 mph 1028mb 64f 59f
4:00 1 2 mph 1028mb 64f 59f
3:54 2 3 mph 1028mb 64f 59f
3:48 2 3 mph 1028.1mb 64f 60f
3:42  -  2 mph 1028mb 64f 59f
3:36 1 3 mph 1027.9mb 64f 59f
3:30  -  2 mph 1028mb 64f 60f
3:24 1 5 mph 1028mb 64f 60f
3:18 2 3 mph 1028.1mb 64f 60f
3:12  -  2 mph 1028.1mb 64f 60f
3:06 2 3 mph 1028.1mb 64f 60f
3:00 1 2 mph 1028mb 64f 60f
2:54  -  2 mph 1028.1mb 64f 60f
2:48 3 5 mph 1028.2mb 64f 60f
2:42  -  1 mph 1028.1mb 64f 60f
2:36 2
mph
1028.1mb 64f 60f
2:30  -  1 mph 1028.2mb 64f 60f
2:24 1 3 mph 1028.2mb 64f 60f
2:18 2 3 mph 1028.3mb 64f 60f
2:12 2 3 mph 1028.4mb 64f 60f
2:06 2 3 mph 1028.4mb 64f 60f
2:00 2
mph
1028.4mb 64f 60f
1:54 2 3 mph 1028.4mb 64f 60f
1:48 1 2 mph 1028.4mb 64f 60f
1:42  -  2 mph 1028.4mb 64f 61f
1:36 2 5 mph 1028.4mb 64f 60f
1:30 3 5 mph 1028.4mb 64f 61f
1:24 2 3 mph 1028.5mb 64f 61f
1:18 1
mph
1028.5mb 64f 60f
1:12  -  1 mph 1028.6mb 64f 60f
1:06  -  1 mph 1028.5mb 64f 61f
1:00 1 3 mph 1028.6mb 64f 61f
12:54 2 3 mph 1028.6mb 64f 61f
12:48 1 2 mph 1028.6mb 64f 61f
12:42 1 2 mph 1028.6mb 64f 61f
12:36 1 5 mph 1028.6mb 64f 61f
12:30 3 5 mph 1028.5mb 64f 61f
12:24  -  2 mph 1028.6mb 64f 61f
12:18 1 2 mph 1028.6mb 63f 61f
12:12 1 2 mph 1028.7mb 63f 61f
12:06  -  2 mph 1028.6mb 62f 61f
12:00 2 3 mph 1028.5mb 62f 61f
Sáb 09/24 11:54  -  2 mph 1028.6mb 63f 61f
11:48 2
mph
1028.6mb 64f -
11:42 1 2 mph 1028.6mb 64f -
11:36 1
mph
1028.6mb 64f -
11:30  -  2 mph 1028.5mb 64f 61f
11:24 1 2 mph 1028.5mb 64f 61f
11:18 2 5 mph 1028.4mb 64f 62f
11:12 2 3 mph 1028.3mb 64f 61f
11:06 3 6 mph 1028.4mb 64f 61f
11:00 3 7 mph 1028.4mb 63f 61f
10:54 2 5 mph 1028.3mb 64f 61f
10:48 3 7 mph - - -
10:42 3 6 mph - - -
10:36 6 7 mph - - -
10:30  -  1 mph 1028.2mb 64f 62f
10:24  -  6 mph 1028.1mb 64f 62f
10:18 3 7 mph 1027.9mb 64f 62f
10:12 2 5 mph 1027.9mb 64f 62f
10:06 3 6 mph 1027.8mb 64f 62f
10:00 3 5 mph 1027.7mb 64f 62f
9:54 3 6 mph 1027.7mb 63f 62f
9:48 2 7 mph 1027.7mb 63f 62f
9:42 3 7 mph 1027.7mb 63f 62f
9:36 6 8 mph 1027.7mb 63f 62f
9:30 5 8 mph 1027.7mb 63f 62f
9:24 6 8 mph 1027.6mb 63f 62f
9:18 7 9 mph 1027.5mb 63f 62f
9:12 5 6 mph 1027.4mb 63f 62f
9:06 5 7 mph 1027.4mb 64f 62f
9:00 6 7 mph 1027.4mb 64f 63f
8:54 5 7 mph 1027.4mb 64f 63f
8:48 6 8 mph 1027.4mb 64f 63f
8:42 6 7 mph 1027.3mb 64f 63f
8:36 2 5 mph 1027.2mb 64f 63f
8:30 2 5 mph 1027.2mb 64f 64f
8:24 3 5 mph 1027.2mb 64f 64f
8:18 3 5 mph 1027.2mb 64f 64f
8:12 3 5 mph 1027mb 65f 64f
8:06  -  2 mph 1026.8mb 65f 64f
8:00 2
mph
1026.7mb 65f 64f
7:54 1 2 mph 1026.7mb 65f 64f
7:48 2
mph
1026.7mb 65f 64f
7:42 1 2 mph 1026.6mb 65f 64f
7:36 1 2 mph 1026.5mb 65f 63f
7:30 1 2 mph 1026.4mb 65f 63f
7:24 1 2 mph 1026.4mb 65f 63f
7:18 1 2 mph 1026.4mb 65f 64f
7:12 2 3 mph 1026.5mb 65f 64f
7:06 2 3 mph 1026.5mb 65f 64f
7:00  -  1 mph 1026.6mb 65f 65f
6:54  -  1 mph 1026.7mb 65f 65f
6:48 1 2 mph 1026.7mb 65f 65f
6:42 2 3 mph 1026.7mb 65f 65f
6:36 3 6 mph 1026.7mb 65f 65f
6:30 3 5 mph 1026.7mb 65f -
6:24 3 6 mph 1026.7mb 65f -
6:18 5 6 mph 1026.8mb 65f 65f
6:12 5 6 mph 1026.7mb 65f 65f
6:06 5 6 mph 1026.7mb 65f 65f
6:00 6 7 mph 1026.7mb 65f 65f
5:54 6 7 mph 1026.5mb 65f 65f
5:48 5 8 mph 1026.4mb 65f 66f
5:42 5 7 mph 1026.4mb 65f 66f
5:36 6 8 mph 1026.4mb 65f 66f
5:30 5 8 mph 1026.3mb 65f 66f
5:24 5 7 mph 1026.5mb 65f 65f
5:18 5 7 mph 1026.6mb 64f 65f
5:12 3 6 mph 1026.6mb 64f 65f
5:06 5 6 mph 1026.7mb 64f 64f
5:00 5 6 mph 1026.8mb 64f 65f
4:54 5 7 mph 1026.8mb 64f 64f
4:48 5 7 mph 1026.8mb 64f -
4:42 7 8 mph 1026.9mb 64f -
4:36 7 9 mph 1026.8mb 64f -
4:30 7 9 mph 1026.7mb 64f 65f
4:24 7 9 mph 1026.7mb 64f 65f
4:18 7 10 mph 1026.7mb 64f 64f
4:12 7 10 mph 1026.9mb 64f 64f
4:06 6 9 mph 1026.9mb 64f 64f
4:00  -  mph 1026.8mb 64f 64f
3:54  -  mph 1026.8mb 64f 64f
3:48 6 8 mph 1026.9mb 64f -
3:42 6 8 mph 1026.9mb 64f -
3:36 6 7 mph 1027mb 64f -
3:30 6 8 mph - 64f -
3:24 6 8 mph - 64f -
3:18 6 8 mph 1026.9mb 64f 63f
3:12 6 10 mph 1027.1mb 64f 63f
3:06 8 10 mph 1027.5mb 64f 63f
3:00 9 10 mph 1027.5mb 64f 63f
2:54 8 10 mph 1027.5mb 64f 62f
2:48 8 9 mph 1027.7mb 64f 62f
2:42 7 10 mph 1027.7mb 64f 62f
2:36 8 10 mph 1027.6mb 64f 63f
2:30 5 7 mph 1027.5mb 64f 63f
2:24 3 8 mph 1027.8mb 63f 63f
2:18 5 8 mph 1027.8mb 63f 62f
2:12 5 6 mph 1028mb 63f 63f
2:06 3 6 mph 1028.2mb 63f 62f
2:00 5 6 mph 1028.3mb 63f 62f
1:54 7 9 mph 1028.1mb 63f 62f
1:48 5 6 mph 1028.2mb 63f 62f
1:42 5 6 mph 1028.2mb 63f 62f
1:36 2 3 mph 1028.4mb 63f 63f
1:30 2 3 mph 1028.6mb 63f 62f
1:24 2 5 mph 1028.5mb 63f 62f
1:18 5 8 mph 1028.4mb 63f 61f
1:12 2 6 mph 1028.6mb 63f 62f
1:06 2 6 mph 1028.5mb 63f 61f
1:00 1 3 mph 1028.5mb 63f 62f
12:54 2 6 mph 1028.5mb 63f 61f
12:48 2 5 mph 1028.4mb 63f 61f
12:42  -  5 mph 1028.4mb 63f 61f
12:36 3 7 mph 1028.6mb 63f 60f
12:30 6 11 mph 1028.7mb 63f 60f
12:24 2 6 mph 1028.8mb 63f 60f
12:18 3 5 mph 1029.1mb 63f 60f
12:12  -  6 mph 1029mb 63f 61f
12:06 3 6 mph 1029.1mb 63f 59f
12:00 5 6 mph 1029.1mb 64f 58f
11:54 5 7 mph 1029.1mb 63f 58f
11:48 6 8 mph 1029.2mb 64f 58f
11:42 6 8 mph 1029mb 64f 58f
11:36 7 8 mph 1029mb 64f 57f
11:30 6 7 mph 1028.8mb 64f 57f
11:24 6 7 mph 1028.9mb 63f 57f
11:18 3 5 mph 1028.9mb 64f 58f
11:12 2 5 mph 1028.9mb 64f 58f
11:06  -  5 mph 1028.8mb 64f 58f
11:00 2 5 mph 1028.7mb 63f 58f
10:54 2 5 mph 1028.8mb 63f 58f
10:48 3 6 mph 1028.8mb 63f 58f
10:42 5 7 mph 1028.8mb 64f 57f
10:36 3 6 mph 1028.7mb 64f 56f
10:30 5 9 mph 1028.6mb 63f 56f
10:24 6 9 mph 1028.6mb 63f 56f
10:18 8 10 mph 1028.7mb 63f 55f
10:12 6 9 mph 1028.6mb 63f 56f
10:06 2 8 mph 1028.7mb 63f 56f
10:00 2 5 mph 1028.6mb 64f 56f
9:54 5 9 mph 1028.6mb 64f 56f
9:48 7 9 mph 1028.4mb 64f 55f
9:42 5 8 mph 1028.6mb 64f 55f
9:36 6 7 mph 1028.7mb 64f 55f
9:30 3 8 mph 1028.7mb 64f 55f
9:24 5 7 mph 1028.5mb 64f 55f
9:18 2 5 mph 1028.3mb - 55f
9:12 6 9 mph 1028.2mb - 55f
9:06 2 5 mph 1028.1mb - 55f
9:00 2 3 mph 1028.4mb 64f 55f
8:54  -  2 mph 1028.5mb 64f 55f
8:48 1 5 mph 1028.5mb 64f 55f
8:42 2
mph
1028.4mb 64f 54f
8:36 1 3 mph 1028.1mb 64f 54f
8:30 3 7 mph 1027.9mb 64f 54f
8:24 6 7 mph 1027.7mb 64f 53f
8:18 6
mph
1027.7mb 64f 54f
8:12 3 6 mph 1027.9mb 64f 54f
8:06 2 5 mph 1027.9mb 64f 54f
8:00 3 6 mph 1028mb 64f 54f
7:54 2 5 mph 1028mb 64f 54f
7:48 2
mph
1027.7mb 64f 54f
7:42 2 5 mph 1027.6mb 64f 54f
7:36 5 6 mph 1027.6mb 64f 54f
7:30 5 6 mph 1027.5mb 64f 54f
7:24 5 6 mph 1027.5mb 64f 53f
7:18 3 6 mph 1027.4mb 64f 53f
7:12 5 6 mph 1027.3mb 64f 53f
7:06 5 6 mph 1027.2mb 64f 53f
7:00 5 6 mph 1027.1mb 64f 53f
6:54 5 6 mph 1027.2mb 64f 54f
6:48 3 6 mph 1027.2mb 64f 53f
6:42 6
mph
1026.9mb 64f 54f
6:36 3 5 mph 1027mb 64f 54f
6:30 5
mph
1027mb 64f 54f
6:24 3 5 mph 1026.9mb 64f 53f
6:18 5 7 mph 1026.9mb 64f 53f
6:12 6 7 mph 1026.8mb 64f 53f
6:06 7 9 mph 1026.7mb 64f 53f
6:00 2
mph
1026.9mb 64f 54f
5:54  -  1 mph 1026.8mb 64f 54f
5:48 2
mph
1026.7mb 64f 54f
5:42 1 2 mph 1026.6mb 64f 55f
5:36 1 3 mph 1026.5mb 64f 55f
5:30 2 3 mph 1026.4mb 64f 55f
5:24 2 3 mph 1026.4mb 64f 55f
5:18 2 3 mph 1026.5mb 64f 55f
5:12 2 3 mph 1026.5mb 64f 55f
5:06 2 3 mph 1026.4mb 64f 55f
5:00  -  3 mph 1026.2mb 64f 55f
4:54 2 3 mph 1026.2mb 64f 55f
4:48 1 3 mph 1026.3mb 64f 55f
4:42  -  3 mph 1026.3mb 64f 55f
4:36 1 2 mph 1026.3mb 64f 55f
4:30 1 2 mph 1026.2mb 64f 55f
4:24 2 3 mph 1026.2mb 64f 55f
4:18 3 7 mph 1026.3mb 64f 56f
4:12 5 10 mph 1026.2mb 64f 56f
4:06 6
mph
1026mb 64f 56f
4:00 2 3 mph 1025.9mb 64f 55f
3:54  -  5 mph 1026mb 64f 55f
3:48 5 6 mph 1026mb 64f 55f
3:42 1 5 mph 1025.9mb 64f 55f
3:36 3 6 mph 1025.7mb 64f 55f
3:30 5 6 mph 1025.5mb 64f 55f
3:24 2 5 mph 1025.7mb 64f 56f
3:18 2 3 mph 1025.8mb 64f 56f
3:12 1 2 mph 1025.9mb 64f 56f
3:06  -  2 mph 1025.8mb 64f 56f
3:00  -  2 mph 1025.8mb 64f 56f
2:54 1 2 mph 1025.8mb 64f 56f
2:48 1 3 mph 1025.7mb 64f 57f
2:42 1 2 mph 1025.8mb 64f 56f
2:36 1 3 mph 1025.8mb 64f 56f
2:30  -  2 mph 1025.9mb 64f 56f
2:24  -  2 mph 1026mb 64f 56f
2:18 1 2 mph 1025.9mb 64f 56f
2:12 1 2 mph 1026mb 64f 56f
2:06 1 3 mph 1026.1mb 64f 56f
2:00 2 3 mph 1026.1mb 64f 56f
1:54 2 5 mph 1026mb 64f 56f
1:48 2 5 mph 1026.1mb 64f 57f
1:42 1 6 mph 1026mb 64f 58f
1:36  -  6 mph 1025.9mb 64f 59f
1:30  -  7 mph 1025.9mb 64f 59f
1:24 6 9 mph 1025.8mb 64f 59f
1:18 9 10 mph 1025.7mb 64f 59f
1:12 7 10 mph 1025.6mb 64f 59f
1:06 8 10 mph 1025.6mb 64f 59f
1:00 8 9 mph 1025.5mb 64f 59f
12:54 5 7 mph 1025.3mb 64f 59f
12:48 6 8 mph 1025.1mb 64f 59f
12:42 5 6 mph 1025mb 64f 58f
12:36 5 6 mph 1025.1mb 64f 59f
12:30 6 7 mph 1025.1mb 64f 58f
12:24 3 6 mph 1025mb 64f 58f
12:18 3 6 mph 1025mb 64f 59f
12:12 5 7 mph 1025mb 64f 59f
12:06 3 7 mph 1025mb 64f 59f
12:00 5 8 mph 1025.1mb 64f 59f
Sex 09/23 11:54 5 8 mph 1025mb 64f 59f
11:48 5 8 mph 1024.9mb 64f 59f
11:42 5 8 mph 1024.8mb 64f 59f
11:36 6 7 mph 1024.7mb 64f 59f
11:30 7 8 mph 1024.7mb 64f 59f
11:24 6 10 mph 1024.7mb 64f 59f
11:18 3 9 mph 1024.8mb 64f 59f
11:12 8 10 mph 1024.7mb 64f 59f
11:06 9 11 mph 1024.6mb 64f 59f
11:00 9 13 mph 1024.6mb 64f 59f
10:54 6 10 mph 1024.7mb 64f 60f
10:48 8 13 mph 1024.6mb 64f 59f
10:42 6 11 mph 1024.6mb 64f 59f
10:36 5 10 mph 1024.5mb 64f 60f
10:30 7 10 mph 1024.4mb 64f 60f
10:24 3 8 mph 1024.5mb 64f 60f
10:18 5 11 mph 1024.4mb 64f 60f
10:12 6 11 mph 1024.3mb 64f 60f
10:06 5 9 mph 1024.2mb 64f 60f
10:00 2 7 mph 1024.1mb 64f 60f
9:54 3 8 mph 1024.1mb 64f 59f
9:48 6 8 mph 1024mb 64f 60f
9:42 5 9 mph 1024mb 64f 60f
9:36 2 8 mph 1023.8mb 64f 60f
9:30 6 8 mph 1023.8mb 64f 60f
9:24 2 8 mph 1023.7mb 64f 60f
9:18 5 9 mph 1023.6mb 65f 60f
9:12 2 6 mph 1023.6mb 65f 59f
9:06 6 8 mph 1023.5mb 64f 59f
9:00 6 7 mph 1023.5mb 64f 59f
8:54 1 6 mph 1023.4mb 64f 60f
8:48 1 5 mph 1023.2mb 64f 60f
8:42 1 10 mph 1023.3mb 64f 60f
8:36 6 9 mph 1023.2mb 64f 60f
8:30 5 7 mph 1022.9mb 63f 60f
8:24 1 5 mph 1022.7mb 63f 60f
8:18 2 7 mph 1022.7mb 63f 60f
8:12 1 6 mph 1022.5mb 63f 60f
8:06 3 13 mph 1022.5mb 63f 60f
8:00 6 11 mph 1022.2mb 64f 60f
7:54 8 11 mph 1022.1mb 64f 60f
7:48 7 10 mph 1022mb 64f 60f
7:42 7 10 mph 1022mb 64f 60f
7:36 6 8 mph 1021.9mb 65f 60f
7:30 7 9 mph 1021.6mb 65f 60f
7:24 8 9 mph 1021.5mb 65f 60f
7:18 6 10 mph 1021.6mb 65f 61f
7:12 6 11 mph 1021.6mb 65f 61f
7:06 6 10 mph 1021.8mb 65f 61f
7:00 3 9 mph 1021.6mb 65f 61f
6:54 2 8 mph 1021.3mb 65f 61f
6:48 5 9 mph 1021.2mb 65f 61f
6:42 1 9 mph 1021.2mb 65f 62f
6:36 5 10 mph 1021.1mb 65f 62f
6:30 3 9 mph 1021.1mb 65f 62f
6:24 3 9 mph 1020.9mb 65f 62f
6:18 5 11 mph 1020.8mb 65f 62f
6:12 2 8 mph 1020.8mb 65f 62f
6:06 5 10 mph 1020.9mb 65f 62f
6:00 2 10 mph 1020.8mb 65f 63f
5:54 2 7 mph 1020.7mb 65f 63f
5:48  -  mph 1020.4mb 65f -
5:42  -  mph 1020.5mb 65f -
5:36  -  mph 1020.5mb 65f -
5:30 1 8 mph 1020.4mb 65f 63f
5:24 2 6 mph 1020.3mb 65f 63f
5:18 2 6 mph 1020.3mb 65f 63f
5:12 1 3 mph 1020.1mb 65f 63f
5:06 2 7 mph 1020.1mb 65f 63f
5:00 2 7 mph 1020mb 65f 64f
4:54 1 8 mph 1020mb 65f 63f
4:48 2 11 mph 1019.6mb 65f -
4:42 5 11 mph 1019.8mb 65f -
4:36 2 11 mph 1019.8mb 65f -
4:30 3 11 mph - 65f -
4:24 5 10 mph - 65f -
4:18 2 13 mph 1019.7mb 65f 63f
4:12 6 10 mph 1019.8mb 65f 62f
4:06 6 11 mph 1019.6mb 65f 62f
4:00 7 13 mph 1019.5mb 65f 62f
3:54 3 9 mph 1019.4mb 65f 62f
3:48 3 10 mph 1019.3mb 65f -
3:42 2 10 mph 1019.2mb 65f -
3:36 2 9 mph 1019.1mb 64f -
3:30 6 11 mph 1019.1mb 64f 62f
3:24 5 10 mph 1019mb 64f 61f
3:18 6 11 mph 1018.8mb 64f 61f
3:12 8 14 mph 1018.7mb 64f 61f
3:06 8 13 mph 1018.5mb 64f 61f
3:00 7 13 mph 1018.4mb 64f -
2:54 9 14 mph 1018.3mb 64f -
2:48 11 14 mph 1018.2mb 64f 60f
2:42 11 15 mph 1018.3mb 64f 60f
2:36 10 15 mph 1018.3mb 64f 59f
2:30 10 18 mph 1018.2mb 64f 59f
2:24 14 18 mph 1018.1mb 64f 58f
2:18 14 22 mph 1017.9mb 64f 58f
2:12 16 23 mph 1017.6mb 64f 58f
2:06 17 22 mph 1017.6mb 64f 58f
2:00 20 28 mph 1017.5mb 64f 58f
1:54 18 30 mph 1017.4mb 64f 59f
1:48 18 26 mph 1017.3mb 64f 58f
1:42 20 29 mph 1017.1mb 64f 59f
1:36 22 31 mph 1017mb 64f 58f
1:30 28 33 mph 1017mb 64f 58f
1:24 21 29 mph 1017.1mb 64f 58f
1:18 25 31 mph 1017.1mb 64f 58f
1:12 20 26 mph 1017mb 64f 58f
1:06 18 29 mph 1017mb 64f 58f
1:00 22 31 mph 1016.9mb 64f 58f
12:54 22 30 mph 1016.9mb 64f 58f
12:48 21 31 mph 1017mb 64f 58f
12:42 23 33 mph 1016.9mb 64f 58f
12:36 18 30 mph 1017mb 64f 59f
12:30 16 23 mph 1016.9mb 64f 59f
12:24 22 31 mph 1016.9mb 64f 59f
12:18 13 23 mph 1017mb 64f 59f
12:12 17 24 mph 1016.9mb 64f 59f
12:06 13 21 mph 1016.8mb 64f 59f
12:00 11 18 mph 1016.9mb 64f 59f
11:54 2 5 mph 1017mb 64f 58f
11:48 2 9 mph 1016.9mb 64f 57f
11:42 3 7 mph 1016.9mb 64f 57f
11:36 3 7 mph 1016.7mb 64f 57f
11:30 6 9 mph 1016.6mb 64f 57f
11:24 3 7 mph 1016.5mb 64f 57f
11:18 3 7 mph 1016.4mb 64f 57f
11:12 3 6 mph 1016.3mb 64f 56f
11:06 3 8 mph 1016.2mb 64f 56f
11:00 7 10 mph 1016.1mb 64f 56f
10:54 3 7 mph 1016mb 64f 56f
10:48 5 8 mph 1016mb 64f 56f
10:42 3 7 mph 1015.9mb 65f 55f
10:36 5 9 mph 1015.9mb 65f 55f
10:30 6 9 mph 1016mb 65f 56f
10:24 7 10 mph 1015.9mb 64f 55f
10:18 5 11 mph 1015.8mb 64f 55f
10:12 6 10 mph 1015.7mb 64f 55f
10:06 6 8 mph 1015.7mb 64f 55f
10:00 2 5 mph 1015.6mb 64f 55f
9:54 1 3 mph 1015.6mb 64f 55f
9:48 2 6 mph 1015.5mb 64f 54f
9:42 2 6 mph 1015.4mb 64f 54f
9:36 2 6 mph 1015.4mb 64f 54f
9:30 2 8 mph 1015.4mb 65f 54f
9:24 3 8 mph 1015.4mb 64f 54f
9:18 3 5 mph 1015.5mb 64f 54f
9:12 2 5 mph 1015.6mb 64f 54f
9:06 2 6 mph 1015.5mb 64f 54f
9:00 2 8 mph 1015.5mb 64f 54f
8:54 1 6 mph 1015.6mb 64f 54f
8:48 5 10 mph 1015.6mb 65f 54f
8:42 3 8 mph 1015.7mb 65f 54f
8:36 2 10 mph 1015.7mb 65f 54f
8:30 3 8 mph 1015.7mb 65f 54f
8:24 3 6 mph 1015.7mb 65f 54f
8:18 2 6 mph 1015.7mb 65f 54f
8:12 3 6 mph 1015.9mb 65f 54f
8:06 1 5 mph 1015.9mb 65f 54f
8:00 2 6 mph 1016mb 65f 55f
7:54 5 7 mph 1016mb 65f 55f
7:48 1 7 mph 1016.1mb 65f 55f
7:42 3 7 mph 1016.1mb 65f 55f
7:36 3 7 mph 1016.2mb 65f 55f
7:24 3 6 mph 1016.2mb 65f 56f
7:18  -  5 mph 1016.2mb 65f 56f
7:00 3 5 mph 1016.2mb 65f 56f
6:54 3 7 mph 1016.2mb 65f 57f
6:48 2 3 mph 1016.2mb 65f 56f
6:30  -  6 mph 1016.5mb 65f 57f
6:18 7 11 mph 1016.4mb 65f 57f
6:12 6 9 mph 1016.4mb 65f 57f
6:00 3 8 mph 1016.3mb 65f 56f
5:54 2 9 mph 1016.5mb 65f 56f
5:48 6 10 mph 1016.4mb 65f 56f
5:42 3 5 mph 1016.6mb 65f 56f
5:30 3 6 mph 1016.7mb 65f 56f
5:24 3 5 mph 1016.8mb 65f 56f
5:18 2 5 mph 1017mb 65f 56f
5:12 1 3 mph 1017mb 65f 55f
5:06 2 5 mph 1017mb 65f 55f
5:00 3 6 mph 1017mb 65f 55f
4:54 3 5 mph 1016.9mb 65f 55f
4:48 5 6 mph 1017mb 65f 55f
4:42 3 5 mph 1017.1mb 65f 55f
4:36 2 3 mph 1017.3mb 65f 55f
4:30 3 6 mph 1017.3mb 65f 55f
4:24 3 5 mph 1017.3mb 65f 55f
4:18 2 3 mph 1017.3mb 65f 55f
4:12 3 6 mph 1017.3mb 65f 55f
4:06 5 6 mph 1017.5mb 65f 55f
4:00 3 6 mph 1017.7mb 65f 55f
3:54 5 6 mph 1017.6mb 65f 55f
3:48 6 7 mph 1017.8mb 65f 55f
3:42 6 7 mph 1017.9mb 65f 55f
3:36 5 6 mph 1018.1mb 65f 55f
3:30 5 7 mph 1018mb 65f 54f
3:24 5 7 mph 1018mb 65f 54f
3:18 5 8 mph 1018.1mb 65f 54f
3:12 5 7 mph 1018mb 65f 55f
3:06 6 9 mph 1018mb 65f 55f
3:00 5 7 mph 1018.1mb 65f 55f
2:54 5 6 mph 1018.2mb 65f 54f
2:48 5 6 mph 1018.1mb 65f 54f
2:42 3 5 mph 1018.1mb 65f 54f
2:36 3 6 mph 1018mb 65f 54f
2:30 5 6 mph 1017.8mb 65f 54f
2:24 3 6 mph 1017.9mb 65f 54f
2:06 3 6 mph 1018.2mb 65f 54f
2:00 2 6 mph 1018mb 65f 55f
1:48 3 5 mph 1018.2mb 64f 55f
1:42 3 6 mph 1018.3mb 64f 55f
1:24 3 5 mph 1018.4mb 64f 56f
1:06 5 6 mph 1018.5mb 64f 55f
1:00 5 7 mph 1018.7mb 64f 55f
12:48 5 6 mph 1018.6mb 65f 55f
12:42 5 6 mph 1018.5mb 65f 55f
12:24 6 7 mph 1018.5mb 65f 55f
12:18 6 7 mph 1018.6mb 65f 55f
12:06 6 7 mph 1018.6mb 65f 55f
12:00 6 8 mph 1018.6mb 65f 55f
Qui 09/22 11:48 7 8 mph 1018.6mb 65f 56f
11:42 7 9 mph 1018.6mb 65f -
11:24 8 10 mph 1018.3mb 65f 55f
11:18 8 10 mph 1018.3mb 65f 55f
11:12 8 9 mph 1018.5mb 65f 55f
11:06 8 10 mph 1018.5mb 65f 55f
11:00 9 10 mph 1018.6mb 65f 55f
10:54 9 11 mph 1018.8mb 65f 56f
10:48 9 11 mph 1018.8mb 65f 56f
10:42 9 11 mph 1018.8mb 65f 56f
10:36 9 11 mph 1018.8mb 65f 56f
10:30 8 11 mph 1018.8mb 65f 56f
10:24 8 10 mph 1018.9mb 65f 56f
10:18 8 11 mph 1019mb 65f 56f
10:12 9 11 mph 1018.8mb 65f 56f
10:06 8 13 mph 1018.9mb 65f 56f
10:00 8 10 mph 1019.1mb 65f 57f
9:54 6 8 mph 1019.2mb 65f 57f
9:48 6 8 mph 1019.4mb 65f 57f
9:36 7 9 mph 1019.2mb 65f 57f
9:30 7 10 mph 1019.2mb 65f 57f
9:24 6 8 mph 1019.2mb 65f 57f
9:18 6 8 mph 1019.5mb 65f 57f
9:12 6 9 mph 1019.4mb 65f 57f
9:06 7 9 mph 1019.5mb 65f 58f
9:00 7 10 mph 1019.5mb 65f 58f
8:54 6 9 mph 1019.4mb 65f 58f
8:48 6 9 mph 1019.3mb 65f 58f
8:42 7 9 mph 1019.2mb 65f 58f
8:36 7 10 mph 1019.1mb 65f 58f
8:30 6 9 mph 1019.1mb 65f 58f
8:24 6 9 mph 1019.1mb 66f 58f
8:18 5 6 mph 1019.1mb 66f 58f
8:12 5 7 mph 1019.2mb 66f 58f
8:00 6 9 mph 1019.2mb 66f 58f
7:48 6 8 mph 1019.2mb 66f 58f
7:42 6 8 mph 1019.2mb 66f 58f
7:30 5 8 mph 1019.4mb - -
7:24 5 7 mph 1019.4mb 66f -
7:06  -  mph 1019.6mb 65f 59f
7:00 6 8 mph 1019.6mb 65f 60f
6:48 6 8 mph 1019.6mb 65f 60f
6:42 7 11 mph 1019.6mb 65f -
6:24 9 11 mph 1019.6mb 65f -
6:06 8 10 mph - 65f 61f
6:00 7 9 mph 1019.6mb 66f -
5:48 7 9 mph 1019.7mb 66f 62f
5:42 6 8 mph 1019.7mb 66f 62f
5:30 3
mph
1019.6mb 66f 61f
5:24 2 5 mph 1019.5mb 66f 61f
5:06 5 7 mph 1019.6mb 66f 61f
5:00 5 6 mph 1019.6mb 66f 62f
4:54 5 7 mph 1019.6mb 66f 61f
4:48 6 10 mph 1019.7mb 66f -
4:42 6 9 mph 1019.7mb 66f -
4:36 6 8 mph 1019.7mb 66f -
4:30 6 9 mph - 66f 61f
4:24 8 9 mph - 66f 61f
4:18 8 11 mph 1019.8mb 66f -
4:12 7 10 mph 1019.9mb 67f -
4:06 8 10 mph 1020mb 67f -
4:00 8 15 mph - 67f 61f
3:54 11 14 mph - 67f 61f
3:48 10 15 mph 1019.8mb 67f -
3:42 11 15 mph 1019.8mb 67f -
3:36 13 14 mph 1019.8mb 67f -
3:30 11 14 mph 1019.7mb 67f 61f
3:24 10 14 mph 1019.7mb 67f 61f
3:18 11 14 mph 1019.7mb 67f 61f
3:12 10 13 mph 1019.6mb 67f 61f
3:06 9 11 mph 1019.5mb 67f 61f
3:00 8 11 mph 1019.5mb 67f 61f
2:54 9 13 mph 1019.5mb 67f 61f
2:48 9 13 mph 1019.5mb 66f 61f
2:42 9 13 mph 1019.5mb 66f 61f
2:36 9 13 mph 1019.5mb 66f 61f
2:30 10 14 mph 1019.4mb 66f 60f
2:24 11 13 mph 1019.3mb 66f 60f
2:18 13 14 mph 1019.3mb 66f 60f
2:12 11 14 mph 1019.3mb 66f 60f
2:06 10 14 mph 1019.3mb 66f 60f
2:00 11 15 mph 1019.2mb 66f 60f
1:54 10 13 mph 1019.1mb 66f 60f
1:48 10 13 mph 1019.2mb 66f 60f
1:42 10 11 mph 1019.3mb 66f 60f
1:36 9 11 mph 1019.3mb 66f 60f
1:30 9 11 mph 1019.2mb 66f 60f
1:24 7 9 mph 1019.1mb 66f 59f
1:18 8 11 mph 1019.2mb - 60f
1:12 9 13 mph 1019.2mb - 59f
1:06 9 14 mph 1019.2mb - 59f
1:00 10 14 mph 1019.2mb 65f 59f
12:54 11 13 mph 1019.2mb 65f 59f
12:48 13 14 mph 1019.3mb 65f 59f
12:42 10 14 mph 1019.3mb 65f 60f
12:36 10 14 mph 1019.3mb 65f 60f
12:30 11 17 mph 1019.3mb 65f 60f
12:24 10 17 mph 1019.3mb 65f 59f
12:18 11 14 mph 1019.2mb 65f 59f
12:12 10 15 mph 1019.2mb 65f 60f
12:06 10 14 mph 1019.1mb 65f 60f
12:00 10 11 mph 1019mb 65f 59f
11:54 9 13 mph 1018.9mb 65f 59f
11:48 9 10 mph 1018.8mb 65f 59f
11:42 9 11 mph 1018.8mb 65f 59f
11:36 5 9 mph 1018.8mb 65f 59f
11:30 8 10 mph 1018.7mb 65f 59f
11:24 7 9 mph 1018.7mb 65f 59f
11:18 7 10 mph 1018.6mb 65f 58f
11:12 7 9 mph 1018.6mb 65f 59f
11:06 7 8 mph 1018.5mb 65f 58f
11:00 8 11 mph 1018.6mb 65f 59f
10:54 6 9 mph 1018.5mb 65f 59f
10:48 7 9 mph 1018.6mb 65f 59f
10:42 6 10 mph 1018.6mb 65f 59f
10:36 9 11 mph 1018.7mb 65f 59f
10:30 9 13 mph 1018.6mb 65f 58f
10:24 8 11 mph 1018.5mb 65f 58f
10:18 10 13 mph 1018.4mb 65f 58f
10:12 8 11 mph 1018.3mb 65f 58f
10:06 8 11 mph 1018.2mb 65f 58f
10:00 10 13 mph 1018.2mb 65f 58f
9:54 8 10 mph 1018.1mb 65f 58f
9:48 8 9 mph 1018mb 65f 58f
9:42 7 10 mph 1017.9mb 65f 58f
9:36 5 7 mph 1018mb 65f 57f
9:30 6 7 mph 1017.9mb 65f 57f
9:24 6 7 mph 1017.9mb 65f 57f
9:18 6 7 mph 1017.9mb 65f 57f
9:12 7 8 mph 1017.8mb 65f 57f
9:06 7 9 mph 1017.8mb 65f 57f
9:00 6 8 mph 1017.7mb 65f 57f
8:54 6 8 mph 1017.7mb 66f 57f
8:48 5 7 mph 1017.6mb 66f 57f
8:42 6 8 mph 1017.6mb 66f 57f
8:36 6 10 mph 1017.6mb 66f 57f
8:30 6 7 mph 1017.6mb 66f 57f
8:24 6 8 mph 1017.6mb 66f 57f
8:18 6 8 mph 1017.6mb 66f 57f
8:12 6 8 mph 1017.6mb 66f 57f
8:06 5 7 mph 1017.5mb 66f 57f
8:00 5 7 mph 1017.5mb 65f 57f
7:54 3 7 mph 1017.5mb 65f 57f
7:48 6 7 mph 1017.4mb 65f 57f
7:42 5 7 mph 1017.3mb 65f 56f
7:36 6
mph
1017.2mb 65f 56f
7:30 5 7 mph 1017.2mb 65f 56f
7:24 6 7 mph 1017.1mb 65f 57f
7:18 6 9 mph 1016.9mb 65f 57f